Time,TemperatureF,DewpointF,PressureIn,WindDirection,WindDirectionDegrees,WindSpeedMPH,WindSpeedGustMPH,Humidity,HourlyPrecipIn,Conditions,Clouds,dailyrainin,SoftwareType,DateUTC
2013-03-03 00:30:00,42.0,37.0,-100.00,SSW,200,2.0,2.0,81,-99.99,,,-99.99,,2013-03-03 07:30:00,
2013-03-03 01:11:00,42.0,37.0,-100.00,SSW,200,2.0,2.0,81,-99.99,,,-99.99,,2013-03-03 08:11:00,
2013-03-03 01:21:00,42.0,37.0,-100.00,SSW,200,2.0,2.0,81,-99.99,,,-99.99,,2013-03-03 08:21:00,
2013-03-03 01:30:00,41.0,36.0,-100.00,SSW,193,2.0,2.0,82,-99.99,,,-99.99,,2013-03-03 08:30:00,
2013-03-03 02:11:00,41.0,36.0,-100.00,SSW,193,2.0,2.0,82,-99.99,,,-99.99,,2013-03-03 09:11:00,
2013-03-03 02:21:00,41.0,36.0,-100.00,SSW,193,2.0,2.0,82,-99.99,,,-99.99,,2013-03-03 09:21:00,
2013-03-03 02:30:00,42.0,36.0,-100.00,SSW,195,2.0,2.0,80,-99.99,,,-99.99,,2013-03-03 09:30:00,
2013-03-03 03:11:00,42.0,36.0,-100.00,SSW,195,2.0,2.0,80,-99.99,,,-99.99,,2013-03-03 10:11:00,
2013-03-03 03:21:00,42.0,36.0,-100.00,SSW,195,2.0,2.0,80,-99.99,,,-99.99,,2013-03-03 10:21:00,
2013-03-03 04:30:00,41.0,32.0,-100.00,South,188,2.0,2.0,71,-99.99,,,-99.99,,2013-03-03 11:30:00,
2013-03-03 05:11:00,41.0,32.0,-100.00,South,188,2.0,2.0,71,-99.99,,,-99.99,,2013-03-03 12:11:00,
2013-03-03 05:21:00,41.0,32.0,-100.00,South,188,2.0,2.0,71,-99.99,,,-99.99,,2013-03-03 12:21:00,
2013-03-03 05:30:00,37.0,35.0,-100.00,West,262,2.0,4.0,92,-99.99,,,-99.99,,2013-03-03 12:30:00,
2013-03-03 06:11:00,37.0,35.0,-100.00,West,262,2.0,4.0,92,-99.99,,,-99.99,,2013-03-03 13:11:00,
2013-03-03 06:21:00,37.0,35.0,-100.00,West,262,2.0,4.0,92,-99.99,,,-99.99,,2013-03-03 13:21:00,
2013-03-03 07:11:00,38.0,19.0,-100.00,West,275,4.0,7.0,45,-99.99,,,-99.99,,2013-03-03 14:11:00,
2013-03-03 07:21:00,38.0,19.0,-100.00,West,275,4.0,7.0,45,-99.99,,,-99.99,,2013-03-03 14:21:00,
2013-03-03 07:30:00,36.0,15.0,-100.00,West,266,2.0,7.0,42,-99.99,,,-99.99,,2013-03-03 14:30:00,
2013-03-03 08:11:00,36.0,15.0,-100.00,West,266,2.0,7.0,42,-99.99,,,-99.99,,2013-03-03 15:11:00,
2013-03-03 08:22:00,36.0,15.0,-100.00,West,266,2.0,7.0,42,-99.99,,,-99.99,,2013-03-03 15:22:00,
2013-03-03 13:30:00,37.0,18.0,-100.00,WNW,294,2.0,4.0,45,-99.99,,,-99.99,,2013-03-03 20:30:00,
2013-03-03 13:32:00,37.0,18.0,-100.00,WNW,300,2.0,2.0,46,-99.99,,,-99.99,,2013-03-03 20:32:00,
2013-03-03 13:42:00,37.0,18.0,-100.00,WNW,300,2.0,2.0,46,-99.99,,,-99.99,,2013-03-03 20:42:00,
2013-03-03 14:11:00,37.0,18.0,-100.00,WNW,294,2.0,4.0,45,-99.99,,,-99.99,,2013-03-03 21:11:00,
2013-03-03 14:21:00,37.0,18.0,-100.00,WNW,294,2.0,4.0,45,-99.99,,,-99.99,,2013-03-03 21:21:00,
2013-03-03 14:30:00,36.0,17.0,-100.00,West,267,4.0,7.0,45,-99.99,,,-99.99,,2013-03-03 21:30:00,
2013-03-03 15:11:00,36.0,17.0,-100.00,West,267,4.0,7.0,45,-99.99,,,-99.99,,2013-03-03 22:11:00,
2013-03-03 15:21:00,36.0,17.0,-100.00,West,267,4.0,7.0,45,-99.99,,,-99.99,,2013-03-03 22:21:00,
2013-03-03 15:30:00,36.0,17.0,-100.00,West,275,4.0,4.0,46,-99.99,,,-99.99,,2013-03-03 22:30:00,
2013-03-03 16:11:00,36.0,17.0,-100.00,West,275,4.0,4.0,46,-99.99,,,-99.99,,2013-03-03 23:11:00,
2013-03-03 16:21:00,36.0,17.0,-100.00,West,275,4.0,4.0,46,-99.99,,,-99.99,,2013-03-03 23:21:00,
2013-03-03 16:30:00,36.0,18.0,-100.00,West,262,4.0,4.0,48,-99.99,,,-99.99,,2013-03-03 23:30:00,
2013-03-03 17:11:00,36.0,18.0,-100.00,West,262,4.0,4.0,48,-99.99,,,-99.99,,2013-03-04 00:11:00,
2013-03-03 17:21:00,36.0,18.0,-100.00,West,262,4.0,4.0,48,-99.99,,,-99.99,,2013-03-04 00:21:00,
2013-03-03 17:30:00,37.0,20.0,-100.00,West,271,2.0,2.0,49,-99.99,,,-99.99,,2013-03-04 00:30:00,
2013-03-03 18:11:00,37.0,20.0,-100.00,West,271,2.0,2.0,49,-99.99,,,-99.99,,2013-03-04 01:11:00,
2013-03-03 18:21:00,37.0,20.0,-100.00,West,271,2.0,2.0,49,-99.99,,,-99.99,,2013-03-04 01:21:00,
2013-03-03 18:30:00,29.0,29.0,-100.00,WNW,299,2.0,2.0,98,-99.99,,,-99.99,,2013-03-04 01:30:00,
2013-03-03 19:11:00,29.0,29.0,-100.00,WNW,299,2.0,2.0,98,-99.99,,,-99.99,,2013-03-04 02:11:00,
2013-03-03 19:22:00,29.0,29.0,-100.00,WNW,299,2.0,2.0,98,-99.99,,,-99.99,,2013-03-04 02:22:00,
2013-03-03 19:30:00,30.0,23.0,-100.00,NW,312,2.0,2.0,75,-99.99,,,-99.99,,2013-03-04 02:30:00,
2013-03-03 20:11:00,30.0,23.0,-100.00,NW,312,2.0,2.0,75,-99.99,,,-99.99,,2013-03-04 03:11:00,
2013-03-03 20:21:00,30.0,23.0,-100.00,NW,312,2.0,2.0,75,-99.99,,,-99.99,,2013-03-04 03:21:00,
2013-03-03 20:30:00,30.0,20.0,-100.00,NW,310,2.0,4.0,66,-99.99,,,-99.99,,2013-03-04 03:30:00,
2013-03-03 21:11:00,30.0,20.0,-100.00,NW,310,2.0,4.0,66,-99.99,,,-99.99,,2013-03-04 04:11:00,
2013-03-03 21:22:00,30.0,20.0,-100.00,NW,310,2.0,4.0,66,-99.99,,,-99.99,,2013-03-04 04:22:00,
2013-03-03 21:30:00,30.0,17.0,-100.00,NW,324,2.0,2.0,58,-99.99,,,-99.99,,2013-03-04 04:30:00,
2013-03-03 22:11:00,30.0,17.0,-100.00,NW,324,2.0,2.0,58,-99.99,,,-99.99,,2013-03-04 05:11:00,
2013-03-03 22:22:00,30.0,17.0,-100.00,NW,324,2.0,2.0,58,-99.99,,,-99.99,,2013-03-04 05:22:00,
2013-03-03 22:30:00,29.0,18.0,-100.00,NW,326,2.0,2.0,62,-99.99,,,-99.99,,2013-03-04 05:30:00,
2013-03-03 23:11:00,29.0,18.0,-100.00,NW,326,2.0,2.0,62,-99.99,,,-99.99,,2013-03-04 06:11:00,
2013-03-03 23:21:00,29.0,18.0,-100.00,NW,326,2.0,2.0,62,-99.99,,,-99.99,,2013-03-04 06:21:00,
2013-03-03 23:30:00,29.0,16.0,-100.00,NW,321,2.0,2.0,59,-99.99,,,-99.99,,2013-03-04 06:30:00,